createdAt,value
2017-05-16T00:01:10.662Z,1025.1
2017-05-16T00:02:10.591Z,1025.08
2017-05-16T00:03:10.530Z,1025.09
2017-05-16T00:04:10.468Z,1025.07
2017-05-16T00:05:10.407Z,1025.07
2017-05-16T00:06:10.345Z,1025.08
2017-05-16T00:07:10.284Z,1025.07
2017-05-16T00:08:10.222Z,1025.1
2017-05-16T00:09:10.160Z,1025.08
2017-05-16T00:10:10.099Z,1025.1
2017-05-16T00:11:10.038Z,1025.1
2017-05-16T00:12:09.976Z,1025.12
2017-05-16T00:13:09.914Z,1025.14
2017-05-16T00:14:09.853Z,1025.08
2017-05-16T00:15:09.791Z,1025.14
2017-05-16T00:16:09.730Z,1025.14
2017-05-16T00:17:09.668Z,1025.11
2017-05-16T00:18:09.606Z,1025.12
2017-05-16T00:19:09.545Z,1025.15
2017-05-16T00:20:09.484Z,1025.17
2017-05-16T00:21:09.424Z,1025.1
2017-05-16T00:22:09.359Z,1025.1
2017-05-16T00:23:09.299Z,1025.14
2017-05-16T00:24:09.237Z,1025.12
2017-05-16T00:25:09.176Z,1025.14
2017-05-16T00:26:09.113Z,1025.12
2017-05-16T00:27:09.052Z,1025.1
2017-05-16T00:28:08.991Z,1025.14
2017-05-16T00:29:08.930Z,1025.13
2017-05-16T00:30:08.869Z,1025.13
2017-05-16T00:31:08.806Z,1025.13
2017-05-16T00:32:08.745Z,1025.12
2017-05-16T00:33:08.682Z,1025.09
2017-05-16T00:34:08.622Z,1025.11
2017-05-16T00:35:08.559Z,1025.1
2017-05-16T00:36:08.500Z,1025.09
2017-05-16T00:37:08.437Z,1025.08
2017-05-16T00:38:08.374Z,1025.12
2017-05-16T00:39:08.314Z,1025.1
2017-05-16T00:40:08.254Z,1025.09
2017-05-16T00:41:08.189Z,1025.12
2017-05-16T00:42:08.131Z,1025.13
2017-05-16T00:43:08.067Z,1025.11
2017-05-16T00:44:08.007Z,1025.09
2017-05-16T00:45:07.944Z,1025.09
2017-05-16T00:46:07.883Z,1025.07
2017-05-16T00:47:07.820Z,1025.09
2017-05-16T00:48:07.759Z,1025.09
2017-05-16T00:49:07.698Z,1025.09
2017-05-16T00:50:07.638Z,1025.12
2017-05-16T00:51:07.576Z,1025.1
2017-05-16T00:52:07.514Z,1025.11
2017-05-16T00:53:07.451Z,1025.13
2017-05-16T00:54:07.391Z,1025.1
2017-05-16T00:55:07.332Z,1025.09
2017-05-16T00:56:07.268Z,1025.15
2017-05-16T00:57:07.206Z,1025.12
2017-05-16T00:58:07.145Z,1025.13
2017-05-16T00:59:07.130Z,1025.11
2017-05-16T01:00:07.021Z,1025.15
2017-05-16T01:01:06.959Z,1025.15
2017-05-16T01:02:06.898Z,1025.16
2017-05-16T01:03:06.836Z,1025.17
2017-05-16T01:04:06.778Z,1025.19
2017-05-16T01:05:06.715Z,1025.2
2017-05-16T01:06:06.651Z,1025.19
2017-05-16T01:07:06.589Z,1025.18
2017-05-16T01:08:06.527Z,1025.17
2017-05-16T01:09:06.467Z,1025.18
2017-05-16T01:10:06.404Z,1025.17
2017-05-16T01:11:06.343Z,1025.18
2017-05-16T01:12:06.282Z,1025.15
2017-05-16T01:13:06.221Z,1025.16
2017-05-16T01:14:06.160Z,1025.16
2017-05-16T01:15:06.101Z,1025.16
2017-05-16T01:16:06.035Z,1025.16
2017-05-16T01:17:05.974Z,1025.13
2017-05-16T01:18:05.913Z,1025.18
2017-05-16T01:19:05.850Z,1025.18
2017-05-16T01:20:05.791Z,1025.19
2017-05-16T01:21:05.727Z,1025.18
2017-05-16T01:22:05.665Z,1025.16
2017-05-16T01:23:05.606Z,1025.17
2017-05-16T01:24:05.543Z,1025.16
2017-05-16T01:25:05.481Z,1025.16
2017-05-16T01:26:05.419Z,1025.16
2017-05-16T01:27:05.358Z,1025.18
2017-05-16T01:28:05.296Z,1025.15
2017-05-16T01:29:05.235Z,1025.15
2017-05-16T01:30:05.173Z,1025.13
2017-05-16T01:31:05.112Z,1025.12
2017-05-16T01:32:05.051Z,1025.09
2017-05-16T01:33:04.989Z,1025.07
2017-05-16T01:34:04.927Z,1025.11
2017-05-16T01:35:04.865Z,1025.1
2017-05-16T01:36:04.805Z,1025.06
2017-05-16T01:37:04.742Z,1025.07
2017-05-16T01:38:04.682Z,1025.05
2017-05-16T01:39:04.619Z,1025.06
2017-05-16T01:40:04.559Z,1025.04
2017-05-16T01:41:04.497Z,1025.05
2017-05-16T01:42:04.435Z,1025.09
2017-05-16T01:43:04.373Z,1025.08
2017-05-16T01:44:04.312Z,1025.07
2017-05-16T01:45:04.250Z,1025.08
2017-05-16T01:46:04.188Z,1025.06
2017-05-16T01:47:04.125Z,1025.05
2017-05-16T01:48:04.065Z,1025.03
2017-05-16T01:49:04.004Z,1025.03
2017-05-16T01:50:03.941Z,1025.05
2017-05-16T01:51:03.880Z,1025.03
2017-05-16T01:52:03.819Z,1025.03
2017-05-16T01:53:03.757Z,1025.03
2017-05-16T01:54:03.695Z,1025.04
2017-05-16T01:55:03.635Z,1025.07
2017-05-16T01:56:03.573Z,1025.05
2017-05-16T01:57:03.543Z,1025.06
2017-05-16T01:58:03.449Z,1025.06
2017-05-16T01:59:03.387Z,1025.06
2017-05-16T02:00:03.325Z,1025.04
2017-05-16T02:01:03.264Z,1025.07
2017-05-16T02:02:03.202Z,1025.02
2017-05-16T02:03:03.142Z,1025.02
2017-05-16T02:04:03.079Z,1025.01
2017-05-16T02:05:03.017Z,1025
2017-05-16T02:06:02.956Z,1025.02
2017-05-16T02:07:02.896Z,1025.01
2017-05-16T02:08:02.832Z,1024.99
2017-05-16T02:09:02.770Z,1024.96
2017-05-16T02:10:02.710Z,1024.94
2017-05-16T02:11:02.649Z,1024.97
2017-05-16T02:12:02.585Z,1024.95
2017-05-16T02:13:02.524Z,1024.95
2017-05-16T02:14:02.463Z,1024.94
2017-05-16T02:15:02.445Z,1024.98
2017-05-16T02:16:02.339Z,1024.98
2017-05-16T02:17:02.279Z,1025.02
2017-05-16T02:18:02.217Z,1024.95
2017-05-16T02:19:02.155Z,1024.95
2017-05-16T02:20:02.096Z,1024.96
2017-05-16T02:21:02.031Z,1024.99
2017-05-16T02:22:01.970Z,1024.99
2017-05-16T02:23:01.907Z,1025.03
2017-05-16T02:24:01.846Z,1025.01
2017-05-16T02:25:01.786Z,1025.02
2017-05-16T02:26:01.724Z,1025.02
2017-05-16T02:27:01.661Z,1025.01
2017-05-16T02:28:01.600Z,1025.03
2017-05-16T02:29:01.538Z,1025.01
2017-05-16T02:30:01.477Z,1025.01
2017-05-16T02:31:01.415Z,1025
2017-05-16T02:32:01.355Z,1025.01
2017-05-16T02:33:01.292Z,1025
2017-05-16T02:34:01.230Z,1024.95
2017-05-16T02:35:01.169Z,1024.99
2017-05-16T02:36:01.107Z,1024.98
2017-05-16T02:37:01.049Z,1024.95
2017-05-16T02:38:00.985Z,1025.02
2017-05-16T02:39:00.923Z,1025.01
2017-05-16T02:40:00.868Z,1025.01
2017-05-16T02:41:00.798Z,1025.04
2017-05-16T02:42:00.737Z,1025.07
2017-05-16T02:43:00.675Z,1025.04
2017-05-16T02:44:00.614Z,1025.01
2017-05-16T02:45:00.593Z,1025
2017-05-16T02:46:00.491Z,1025
2017-05-16T02:47:00.433Z,1025.01
2017-05-16T02:48:00.367Z,1025.03
2017-05-16T02:49:00.305Z,1025.03
2017-05-16T02:50:00.244Z,1025.04
2017-05-16T02:51:00.182Z,1025.04
2017-05-16T02:52:00.120Z,1025.03
2017-05-16T02:53:00.058Z,1025.04
2017-05-16T02:53:59.997Z,1025.05
2017-05-16T02:54:59.936Z,1025.05
2017-05-16T02:55:59.874Z,1025.04
2017-05-16T02:56:59.812Z,1025.06
2017-05-16T02:57:59.750Z,1025.09
2017-05-16T02:58:59.689Z,1025.09
2017-05-16T02:59:59.627Z,1025.08
2017-05-16T03:00:59.565Z,1025.11
2017-05-16T03:01:59.504Z,1025.11
2017-05-16T03:02:59.442Z,1025.09
2017-05-16T03:03:59.381Z,1025.06
2017-05-16T03:04:59.319Z,1025.13
2017-05-16T03:05:59.257Z,1025.13
2017-05-16T03:06:59.194Z,1025.12
2017-05-16T03:07:59.135Z,1025.11
2017-05-16T03:08:59.072Z,1025.12
2017-05-16T03:09:59.012Z,1025.12
2017-05-16T03:10:58.949Z,1025.13
2017-05-16T03:11:58.887Z,1025.11
2017-05-16T03:12:58.827Z,1025.09
2017-05-16T03:13:58.765Z,1025.14
2017-05-16T03:14:58.723Z,1025.13
2017-05-16T03:15:58.641Z,1025.14
2017-05-16T03:16:58.580Z,1025.15
2017-05-16T03:17:58.517Z,1025.13
2017-05-16T03:18:58.457Z,1025.13
2017-05-16T03:19:58.395Z,1025.14
2017-05-16T03:20:58.332Z,1025.13
2017-05-16T03:21:58.270Z,1025.1
2017-05-16T03:22:58.213Z,1025.13
2017-05-16T03:23:58.149Z,1025.14
2017-05-16T03:24:58.085Z,1025.16
2017-05-16T03:25:58.024Z,1025.17
2017-05-16T03:26:57.964Z,1025.17
2017-05-16T03:27:57.903Z,1025.19
2017-05-16T03:28:57.850Z,1025.18
2017-05-16T03:29:57.778Z,1025.17
2017-05-16T03:30:57.716Z,1025.12
2017-05-16T03:31:57.654Z,1025.12
2017-05-16T03:32:57.602Z,1025.13
2017-05-16T03:33:57.531Z,1025.14
2017-05-16T03:34:57.469Z,1025.12
2017-05-16T03:35:57.617Z,1025.15
2017-05-16T03:36:57.347Z,1025.13
2017-05-16T03:37:57.285Z,1025.16
2017-05-16T03:38:57.223Z,1025.1
2017-05-16T03:39:57.160Z,1025.12
2017-05-16T03:40:57.099Z,1025.15
2017-05-16T03:41:57.038Z,1025.14
2017-05-16T03:42:56.975Z,1025.11
2017-05-16T03:43:56.913Z,1025.13
2017-05-16T03:44:56.852Z,1025.14
2017-05-16T03:45:56.792Z,1025.12
2017-05-16T03:46:56.730Z,1025.14
2017-05-16T03:47:56.666Z,1025.13
2017-05-16T03:48:56.606Z,1025.14
2017-05-16T03:49:56.544Z,1025.16
2017-05-16T03:50:56.481Z,1025.18
2017-05-16T03:51:56.421Z,1025.13
2017-05-16T03:52:56.359Z,1025.16
2017-05-16T03:53:56.297Z,1025.12
2017-05-16T03:54:56.235Z,1025.09
2017-05-16T03:55:56.173Z,1025.11
2017-05-16T03:56:56.112Z,1025.08
2017-05-16T03:57:56.050Z,1025.08
2017-05-16T03:58:55.989Z,1025.06
2017-05-16T03:59:55.928Z,1025.08
2017-05-16T04:00:55.867Z,1025.01
2017-05-16T04:01:55.804Z,1025.04
2017-05-16T04:02:55.743Z,1025.13
2017-05-16T04:03:55.681Z,1025.14
2017-05-16T04:04:55.619Z,1025.11
2017-05-16T04:05:55.556Z,1025.05
2017-05-16T04:06:55.494Z,1025.04
2017-05-16T04:07:55.435Z,1025.02
2017-05-16T04:08:55.372Z,1025.04
2017-05-16T04:09:55.311Z,1025.02
2017-05-16T04:10:55.249Z,1024.99
2017-05-16T04:11:55.187Z,1025.02
2017-05-16T04:12:55.125Z,1025.01
2017-05-16T04:13:55.064Z,1025
2017-05-16T04:14:55.003Z,1024.98
2017-05-16T04:15:54.939Z,1025.02
2017-05-16T04:16:54.877Z,1025.01
2017-05-16T04:17:54.816Z,1025.02
2017-05-16T04:18:54.754Z,1025.05
2017-05-16T04:19:54.693Z,1025.03
2017-05-16T04:20:54.631Z,1025.03
2017-05-16T04:21:54.572Z,1025.04
2017-05-16T04:22:54.507Z,1025.01
2017-05-16T04:23:54.445Z,1025.03
2017-05-16T04:24:54.384Z,1025.03
2017-05-16T04:25:54.322Z,1025
2017-05-16T04:26:54.260Z,1025.04
2017-05-16T04:27:54.198Z,1025.06
2017-05-16T04:28:54.136Z,1025.03
2017-05-16T04:29:54.075Z,1025.05
2017-05-16T04:30:54.014Z,1025.05
2017-05-16T04:31:53.951Z,1025.09
2017-05-16T04:32:53.890Z,1025.07
2017-05-16T04:33:53.828Z,1025.04
2017-05-16T04:34:53.765Z,1025.06
2017-05-16T04:35:53.704Z,1025.09
2017-05-16T04:36:53.643Z,1025.11
2017-05-16T04:37:53.581Z,1025.11
2017-05-16T04:38:53.518Z,1025.1
2017-05-16T04:39:53.456Z,1025.1
2017-05-16T04:40:53.395Z,1025.12
2017-05-16T04:41:53.333Z,1025.13
2017-05-16T04:42:53.272Z,1025.13
2017-05-16T04:43:53.208Z,1025.14
2017-05-16T04:44:53.147Z,1025.17
2017-05-16T04:45:53.085Z,1025.14
2017-05-16T04:46:53.024Z,1025.15
2017-05-16T04:47:52.964Z,1025.13
2017-05-16T04:48:52.900Z,1025.12
2017-05-16T04:49:52.839Z,1025.16
2017-05-16T04:50:52.777Z,1025.19
2017-05-16T04:51:52.715Z,1025.19
2017-05-16T04:52:52.651Z,1025.17
2017-05-16T04:53:52.590Z,1025.2
2017-05-16T04:54:52.529Z,1025.18
2017-05-16T04:55:52.466Z,1025.17
2017-05-16T04:56:52.407Z,1025.14
2017-05-16T04:57:52.343Z,1025.16
2017-05-16T04:58:52.282Z,1025.19
2017-05-16T04:59:52.218Z,1025.15
2017-05-16T05:00:52.157Z,1025.18
2017-05-16T05:01:52.095Z,1025.19
2017-05-16T05:02:52.033Z,1025.23
2017-05-16T05:03:51.972Z,1025.24
2017-05-16T05:04:51.909Z,1025.28
2017-05-16T05:05:51.892Z,1025.26
2017-05-16T05:06:51.784Z,1025.25
2017-05-16T05:07:51.724Z,1025.28
2017-05-16T05:08:51.664Z,1025.31
2017-05-16T05:09:51.642Z,1025.33
2017-05-16T05:10:51.837Z,1025.31
2017-05-16T05:11:51.475Z,1025.33
2017-05-16T05:12:51.414Z,1025.34
2017-05-16T05:13:51.353Z,1025.33
2017-05-16T05:14:51.289Z,1025.37
2017-05-16T05:15:51.229Z,1025.39
2017-05-16T05:16:51.166Z,1025.39
2017-05-16T05:17:51.105Z,1025.4
2017-05-16T05:18:51.041Z,1025.41
2017-05-16T05:19:50.981Z,1025.41
2017-05-16T05:20:50.918Z,1025.4
2017-05-16T05:21:50.856Z,1025.4
2017-05-16T05:22:50.801Z,1025.43
2017-05-16T05:23:50.732Z,1025.43
2017-05-16T05:24:50.672Z,1025.4
2017-05-16T05:25:50.757Z,1025.4
2017-05-16T05:26:50.546Z,1025.42
2017-05-16T05:27:50.485Z,1025.43
2017-05-16T05:28:50.421Z,1025.38
2017-05-16T05:29:50.359Z,1025.38
2017-05-16T05:30:50.398Z,1025.39
2017-05-16T05:31:50.236Z,1025.38
2017-05-16T05:32:50.173Z,1025.4
2017-05-16T05:33:50.112Z,1025.39
2017-05-16T05:34:50.052Z,1025.35
2017-05-16T05:35:49.988Z,1025.38
2017-05-16T05:36:49.926Z,1025.38
2017-05-16T05:37:49.865Z,1025.37
2017-05-16T05:38:49.802Z,1025.38
2017-05-16T05:39:49.741Z,1025.39
2017-05-16T05:40:49.677Z,1025.43
2017-05-16T05:41:49.617Z,1025.42
2017-05-16T05:42:49.554Z,1025.41
2017-05-16T05:43:49.491Z,1025.42
2017-05-16T05:44:49.429Z,1025.42
2017-05-16T05:45:49.368Z,1025.42
2017-05-16T05:46:49.307Z,1025.38
2017-05-16T05:47:49.244Z,1025.4
2017-05-16T05:48:49.182Z,1025.36
2017-05-16T05:49:49.119Z,1025.35
2017-05-16T05:50:49.057Z,1025.35
2017-05-16T05:51:48.995Z,1025.4
2017-05-16T05:52:48.933Z,1025.42
2017-05-16T05:53:48.871Z,1025.42
2017-05-16T05:54:48.809Z,1025.46
2017-05-16T05:55:48.847Z,1025.49
2017-05-16T05:56:48.686Z,1025.49
2017-05-16T05:57:48.623Z,1025.51
2017-05-16T05:58:48.560Z,1025.48
2017-05-16T05:59:48.499Z,1025.5
2017-05-16T06:00:48.588Z,1025.51
2017-05-16T06:01:48.374Z,1025.51
2017-05-16T06:02:48.312Z,1025.52
2017-05-16T06:03:48.250Z,1025.55
2017-05-16T06:04:48.189Z,1025.53
2017-05-16T06:05:48.127Z,1025.52
2017-05-16T06:06:48.065Z,1025.53
2017-05-16T06:07:48.003Z,1025.51
2017-05-16T06:08:47.941Z,1025.5
2017-05-16T06:09:47.877Z,1025.54
2017-05-16T06:10:47.816Z,1025.52
2017-05-16T06:11:47.754Z,1025.57
2017-05-16T06:12:47.692Z,1025.56
2017-05-16T06:13:47.629Z,1025.59
2017-05-16T06:14:47.567Z,1025.58
2017-05-16T06:15:47.506Z,1025.57
2017-05-16T06:16:47.443Z,1025.59
2017-05-16T06:17:47.381Z,1025.61
2017-05-16T06:18:47.320Z,1025.61
2017-05-16T06:19:47.259Z,1025.62
2017-05-16T06:20:47.196Z,1025.62
2017-05-16T06:21:47.134Z,1025.63
2017-05-16T06:22:47.072Z,1025.61
2017-05-16T06:23:47.011Z,1025.64
2017-05-16T06:24:46.948Z,1025.6
2017-05-16T06:25:47.185Z,1025.62
2017-05-16T06:26:46.824Z,1025.6
2017-05-16T06:27:46.762Z,1025.64
2017-05-16T06:28:46.699Z,1025.66
2017-05-16T06:29:46.637Z,1025.68
2017-05-16T06:30:46.575Z,1025.68
2017-05-16T06:31:46.513Z,1025.69
2017-05-16T06:32:46.450Z,1025.67
2017-05-16T06:33:46.388Z,1025.64
2017-05-16T06:34:46.326Z,1025.65
2017-05-16T06:35:46.264Z,1025.65
2017-05-16T06:36:46.203Z,1025.65
2017-05-16T06:37:46.142Z,1025.61
2017-05-16T06:38:46.087Z,1025.63
2017-05-16T06:39:46.016Z,1025.63
2017-05-16T06:40:45.955Z,1025.64
2017-05-16T06:41:45.892Z,1025.61
2017-05-16T06:42:45.829Z,1025.62
2017-05-16T06:43:45.768Z,1025.6
2017-05-16T06:44:45.705Z,1025.67
2017-05-16T06:45:45.642Z,1025.67
2017-05-16T06:46:45.581Z,1025.69
2017-05-16T06:47:45.520Z,1025.69
2017-05-16T06:48:45.457Z,1025.68
2017-05-16T06:49:45.395Z,1025.71
2017-05-16T06:50:45.332Z,1025.71
2017-05-16T06:51:45.270Z,1025.68
2017-05-16T06:52:45.207Z,1025.69
2017-05-16T06:53:45.146Z,1025.72
2017-05-16T06:54:45.083Z,1025.71
2017-05-16T06:55:45.311Z,1025.71
2017-05-16T06:56:44.960Z,1025.73
2017-05-16T06:57:44.898Z,1025.73
2017-05-16T06:58:44.884Z,1025.75
2017-05-16T06:59:44.774Z,1025.74
2017-05-16T07:00:44.861Z,1025.76
2017-05-16T07:01:44.650Z,1025.74
2017-05-16T07:02:44.587Z,1025.76
2017-05-16T07:03:44.524Z,1025.78
2017-05-16T07:04:44.467Z,1025.75
2017-05-16T07:05:44.402Z,1025.82
2017-05-16T07:06:44.339Z,1025.74
2017-05-16T07:07:44.330Z,1025.75
2017-05-16T07:08:44.214Z,1025.73
2017-05-16T07:09:44.151Z,1025.73
2017-05-16T07:10:44.090Z,1025.75
2017-05-16T07:11:44.027Z,1025.7
2017-05-16T07:12:43.966Z,1025.71
2017-05-16T07:13:43.904Z,1025.71
2017-05-16T07:14:43.840Z,1025.67
2017-05-16T07:15:43.933Z,1025.68
2017-05-16T07:16:43.718Z,1025.68
2017-05-16T07:17:43.655Z,1025.7
2017-05-16T07:18:43.593Z,1025.69
2017-05-16T07:19:43.530Z,1025.74
2017-05-16T07:20:43.468Z,1025.73
2017-05-16T07:21:43.407Z,1025.69
2017-05-16T07:22:43.344Z,1025.67
2017-05-16T07:23:43.282Z,1025.68
2017-05-16T07:24:43.220Z,1025.67
2017-05-16T07:25:43.410Z,1025.69
2017-05-16T07:26:43.096Z,1025.67
2017-05-16T07:27:43.033Z,1025.65
2017-05-16T07:28:42.971Z,1025.69
2017-05-16T07:29:42.924Z,1025.69
2017-05-16T07:30:43.097Z,1025.69
2017-05-16T07:31:42.790Z,1025.69
2017-05-16T07:32:42.724Z,1025.68
2017-05-16T07:33:42.660Z,1025.68
2017-05-16T07:34:42.597Z,1025.7
2017-05-16T07:35:42.789Z,1025.67
2017-05-16T07:36:42.473Z,1025.65
2017-05-16T07:37:42.412Z,1025.6
2017-05-16T07:38:42.350Z,1025.62
2017-05-16T07:39:42.287Z,1025.64
2017-05-16T07:40:42.374Z,1025.59
2017-05-16T07:41:42.162Z,1025.6
2017-05-16T07:42:42.101Z,1025.61
2017-05-16T07:43:42.038Z,1025.58
2017-05-16T07:44:41.975Z,1025.56
2017-05-16T07:45:42.064Z,1025.59
2017-05-16T07:46:41.853Z,1025.57
2017-05-16T07:47:41.790Z,1025.59
2017-05-16T07:48:41.733Z,1025.56
2017-05-16T07:49:41.666Z,1025.55
2017-05-16T07:50:41.704Z,1025.57
2017-05-16T07:51:41.541Z,1025.55
2017-05-16T07:52:41.479Z,1025.56
2017-05-16T07:53:41.417Z,1025.55
2017-05-16T07:54:41.355Z,1025.55
2017-05-16T07:55:41.546Z,1025.58
2017-05-16T07:56:41.232Z,1025.58
2017-05-16T07:57:41.170Z,1025.56
2017-05-16T07:58:41.109Z,1025.54
2017-05-16T07:59:41.045Z,1025.55
2017-05-16T08:00:41.235Z,1025.52
2017-05-16T08:01:40.922Z,1025.56
2017-05-16T08:02:40.859Z,1025.55
2017-05-16T08:03:40.797Z,1025.55
2017-05-16T08:04:40.735Z,1025.56
2017-05-16T08:05:40.822Z,1025.54
2017-05-16T08:06:40.610Z,1025.52
2017-05-16T08:07:40.549Z,1025.54
2017-05-16T08:08:40.486Z,1025.54
2017-05-16T08:09:40.423Z,1025.49
2017-05-16T08:10:40.362Z,1025.56
2017-05-16T08:11:40.300Z,1025.53
2017-05-16T08:12:40.241Z,1025.59
2017-05-16T08:13:40.175Z,1025.59
2017-05-16T08:14:40.114Z,1025.58
2017-05-16T08:15:40.052Z,1025.58
2017-05-16T08:16:39.990Z,1025.55
2017-05-16T08:17:39.929Z,1025.6
2017-05-16T08:18:39.866Z,1025.6
2017-05-16T08:19:39.806Z,1025.63
2017-05-16T08:20:39.742Z,1025.58
2017-05-16T08:21:39.680Z,1025.57
2017-05-16T08:22:39.619Z,1025.58
2017-05-16T08:23:39.558Z,1025.58
2017-05-16T08:24:39.496Z,1025.54
2017-05-16T08:25:39.433Z,1025.52
2017-05-16T08:26:39.371Z,1025.54
2017-05-16T08:27:39.310Z,1025.53
2017-05-16T08:28:39.248Z,1025.54
2017-05-16T08:29:39.186Z,1025.54
2017-05-16T08:30:39.125Z,1025.58
2017-05-16T08:31:39.063Z,1025.58
2017-05-16T08:32:39.001Z,1025.61
2017-05-16T08:33:38.940Z,1025.57
2017-05-16T08:34:38.879Z,1025.58
2017-05-16T08:35:38.817Z,1025.58
2017-05-16T08:36:38.754Z,1025.55
2017-05-16T08:37:38.693Z,1025.57
2017-05-16T08:38:38.632Z,1025.57
2017-05-16T08:39:38.570Z,1025.54
2017-05-16T08:40:38.508Z,1025.55
2017-05-16T08:41:38.447Z,1025.56
2017-05-16T08:42:38.385Z,1025.55
2017-05-16T08:43:38.325Z,1025.57
2017-05-16T08:44:38.262Z,1025.58
2017-05-16T08:45:38.350Z,1025.6
2017-05-16T08:46:38.139Z,1025.6
2017-05-16T08:47:38.078Z,1025.6
2017-05-16T08:48:38.019Z,1025.59
2017-05-16T08:49:37.954Z,1025.58
2017-05-16T08:50:38.143Z,1025.58
2017-05-16T08:51:37.831Z,1025.61
2017-05-16T08:52:37.771Z,1025.61
2017-05-16T08:53:37.708Z,1025.61
2017-05-16T08:54:37.648Z,1025.6
2017-05-16T08:55:38.088Z,1025.65
2017-05-16T08:56:37.525Z,1025.64
2017-05-16T08:57:37.465Z,1025.66
2017-05-16T08:58:37.402Z,1025.66
2017-05-16T08:59:37.346Z,1025.64
2017-05-16T09:00:37.380Z,1025.66
2017-05-16T09:01:37.219Z,1025.65
2017-05-16T09:02:37.158Z,1025.65
2017-05-16T09:03:37.098Z,1025.67
2017-05-16T09:04:37.036Z,1025.63
2017-05-16T09:05:37.125Z,1025.63
2017-05-16T09:06:36.914Z,1025.66
2017-05-16T09:07:36.853Z,1025.67
2017-05-16T09:08:36.792Z,1025.66
2017-05-16T09:09:36.732Z,1025.65
2017-05-16T09:10:36.920Z,1025.68
2017-05-16T09:11:36.608Z,1025.66
2017-05-16T09:12:36.548Z,1025.68
2017-05-16T09:13:36.487Z,1025.68
2017-05-16T09:14:36.429Z,1025.67
2017-05-16T09:15:36.515Z,1025.66
2017-05-16T09:16:36.305Z,1025.69
2017-05-16T09:17:36.245Z,1025.65
2017-05-16T09:18:36.185Z,1025.69
2017-05-16T09:19:36.123Z,1025.7
2017-05-16T09:20:36.212Z,1025.68
2017-05-16T09:21:36.005Z,1025.73
2017-05-16T09:22:35.941Z,1025.68
2017-05-16T09:23:35.884Z,1025.69
2017-05-16T09:24:35.821Z,1025.72
2017-05-16T09:25:35.859Z,1025.72
2017-05-16T09:26:35.699Z,1025.77
2017-05-16T09:27:35.638Z,1025.72
2017-05-16T09:28:35.577Z,1025.75
2017-05-16T09:29:35.517Z,1025.8
2017-05-16T09:30:35.457Z,1025.77
2017-05-16T09:31:35.396Z,1025.76
2017-05-16T09:32:35.336Z,1025.8
2017-05-16T09:33:35.275Z,1025.77
2017-05-16T09:34:35.220Z,1025.79
2017-05-16T09:35:35.156Z,1025.76
2017-05-16T09:36:35.095Z,1025.79
2017-05-16T09:37:35.036Z,1025.77
2017-05-16T09:38:34.975Z,1025.76
2017-05-16T09:39:34.913Z,1025.79
2017-05-16T09:40:34.853Z,1025.78
2017-05-16T09:41:34.793Z,1025.76
2017-05-16T09:42:34.732Z,1025.79
2017-05-16T09:43:34.672Z,1025.78
2017-05-16T09:44:34.613Z,1025.81
2017-05-16T09:45:34.902Z,1025.8
2017-05-16T09:46:34.490Z,1025.78
2017-05-16T09:47:34.431Z,1025.76
2017-05-16T09:48:34.372Z,1025.75
2017-05-16T09:49:34.311Z,1025.77
2017-05-16T09:50:34.551Z,1025.75
2017-05-16T09:51:34.190Z,1025.77
2017-05-16T09:52:34.130Z,1025.7
2017-05-16T09:53:34.072Z,1025.7
2017-05-16T09:54:34.013Z,1025.7
2017-05-16T09:55:34.048Z,1025.69
2017-05-16T09:56:33.888Z,1025.69
2017-05-16T09:57:33.829Z,1025.68
2017-05-16T09:58:33.769Z,1025.7
2017-05-16T09:59:33.707Z,1025.7
2017-05-16T10:00:33.799Z,1025.69
2017-05-16T10:01:33.588Z,1025.68
2017-05-16T10:02:33.527Z,1025.7
2017-05-16T10:03:33.466Z,1025.72
2017-05-16T10:04:33.408Z,1025.72
2017-05-16T10:05:33.599Z,1025.72
2017-05-16T10:06:33.287Z,1025.71
2017-05-16T10:07:33.227Z,1025.69
2017-05-16T10:08:33.166Z,1025.7
2017-05-16T10:09:33.106Z,1025.69
2017-05-16T10:10:33.196Z,1025.65
2017-05-16T10:11:32.985Z,1025.64
2017-05-16T10:12:32.925Z,1025.65
2017-05-16T10:13:32.864Z,1025.7
2017-05-16T10:14:32.805Z,1025.71
2017-05-16T10:15:32.744Z,1025.65
2017-05-16T10:16:32.686Z,1025.66
2017-05-16T10:17:32.623Z,1025.68
2017-05-16T10:18:32.565Z,1025.68
2017-05-16T10:19:32.505Z,1025.64
2017-05-16T10:20:32.743Z,1025.67
2017-05-16T10:21:32.383Z,1025.65
2017-05-16T10:22:32.327Z,1025.66
2017-05-16T10:23:32.265Z,1025.61
2017-05-16T10:24:32.202Z,1025.61
2017-05-16T10:25:32.294Z,1025.59
2017-05-16T10:26:32.083Z,1025.63
2017-05-16T10:27:32.025Z,1025.66
2017-05-16T10:28:31.961Z,1025.62
2017-05-16T10:29:31.906Z,1025.64
2017-05-16T10:30:32.191Z,1025.63
2017-05-16T10:31:31.785Z,1025.64
2017-05-16T10:32:31.720Z,1025.61
2017-05-16T10:33:31.662Z,1025.66
2017-05-16T10:34:31.600Z,1025.64
2017-05-16T10:36:31.480Z,1025.63
2017-05-16T10:37:31.419Z,1025.68
2017-05-16T10:38:31.367Z,1025.65
2017-05-16T10:39:31.299Z,1025.68
2017-05-16T10:40:31.238Z,1025.68
2017-05-16T10:41:31.178Z,1025.67
2017-05-16T10:42:31.118Z,1025.62
2017-05-16T10:43:31.058Z,1025.6
2017-05-16T10:44:30.999Z,1025.63
2017-05-16T10:45:30.938Z,1025.64
2017-05-16T10:46:30.877Z,1025.64
2017-05-16T10:47:30.816Z,1025.65
2017-05-16T10:48:30.756Z,1025.61
2017-05-16T10:49:30.697Z,1025.65
2017-05-16T10:50:30.637Z,1025.63
2017-05-16T10:51:30.576Z,1025.64
2017-05-16T10:52:30.515Z,1025.62
2017-05-16T10:53:30.456Z,1025.62
2017-05-16T10:54:30.394Z,1025.66
2017-05-16T10:55:30.332Z,1025.63
2017-05-16T10:56:30.272Z,1025.58
2017-05-16T10:57:30.211Z,1025.59
2017-05-16T10:58:30.150Z,1025.58
2017-05-16T10:59:30.091Z,1025.59
2017-05-16T11:00:30.429Z,1025.57
2017-05-16T11:01:29.981Z,1025.61
2017-05-16T11:02:29.906Z,1025.59
2017-05-16T11:03:29.847Z,1025.6
2017-05-16T11:04:29.785Z,1025.59
2017-05-16T11:05:29.832Z,1025.6
2017-05-16T11:06:29.665Z,1025.57
2017-05-16T11:07:29.623Z,1025.58
2017-05-16T11:08:29.543Z,1025.6
2017-05-16T11:09:29.493Z,1025.59
2017-05-16T11:10:29.419Z,1025.59
2017-05-16T11:11:29.359Z,1025.56
2017-05-16T11:12:29.297Z,1025.58
2017-05-16T11:13:29.236Z,1025.6
2017-05-16T11:14:29.176Z,1025.58
2017-05-16T11:15:29.214Z,1025.59
2017-05-16T11:16:29.053Z,1025.57
2017-05-16T11:17:29.003Z,1025.58
2017-05-16T11:18:28.945Z,1025.57
2017-05-16T11:19:28.869Z,1025.58
2017-05-16T11:20:29.107Z,1025.59
2017-05-16T11:21:28.747Z,1025.54
2017-05-16T11:22:28.686Z,1025.53
2017-05-16T11:23:28.625Z,1025.58
2017-05-16T11:24:28.574Z,1025.58
2017-05-16T11:25:28.753Z,1025.56
2017-05-16T11:26:28.453Z,1025.58
2017-05-16T11:27:28.379Z,1025.6
2017-05-16T11:28:28.318Z,1025.57
2017-05-16T11:29:28.258Z,1025.54
2017-05-16T11:30:28.454Z,1025.56
2017-05-16T11:31:28.135Z,1025.56
2017-05-16T11:32:28.084Z,1025.54
2017-05-16T11:33:28.013Z,1025.55
2017-05-16T11:34:27.951Z,1025.53
2017-05-16T11:35:28.138Z,1025.53
2017-05-16T11:36:27.834Z,1025.53
2017-05-16T11:37:27.766Z,1025.52
2017-05-16T11:38:27.703Z,1025.52
2017-05-16T11:39:27.648Z,1025.52
2017-05-16T11:40:27.682Z,1025.5
2017-05-16T11:41:27.521Z,1025.48
2017-05-16T11:42:27.467Z,1025.52
2017-05-16T11:43:27.397Z,1025.47
2017-05-16T11:44:27.336Z,1025.46
2017-05-16T11:45:27.286Z,1025.45
2017-05-16T11:46:27.212Z,1025.46
2017-05-16T11:47:27.151Z,1025.44
2017-05-16T11:48:27.088Z,1025.44
2017-05-16T11:49:27.027Z,1025.43
2017-05-16T11:50:26.966Z,1025.42
2017-05-16T11:51:26.916Z,1025.38
2017-05-16T11:52:26.856Z,1025.41
2017-05-16T11:53:26.781Z,1025.38
2017-05-16T11:54:26.720Z,1025.37
2017-05-16T11:55:26.658Z,1025.35
2017-05-16T11:56:26.606Z,1025.4
2017-05-16T11:57:26.546Z,1025.36
2017-05-16T11:58:26.474Z,1025.34
2017-05-16T11:59:26.411Z,1025.32
2017-05-16T12:00:26.350Z,1025.29
2017-05-16T12:01:26.288Z,1025.27
2017-05-16T12:02:26.227Z,1025.29
2017-05-16T12:03:26.169Z,1025.3
2017-05-16T12:04:26.104Z,1025.28
2017-05-16T12:05:26.042Z,1025.27
2017-05-16T12:06:25.981Z,1025.24
2017-05-16T12:07:25.919Z,1025.25
2017-05-16T12:08:25.857Z,1025.27
2017-05-16T12:09:25.796Z,1025.23